Time;durP1;ratioP1;P1;durP2;ratioP2;P2;SDS_P1;SDS_P2;PMS_P1;PMS_P2;Temp;Humidity;BMP_temperature;BMP_pressure;BME280_temperature;BME280_humidity;BME280_pressure;Samples;Min_cycle;Max_cycle;Signal;HPM_P1;HPM_P2
2023/10/23 00:00:10;;;;;;;17.33;3.35;;;20.60;99.90;;;;;;5097550;28;20106;-68
2023/10/23 00:02:39;;;;;;;13.30;2.85;;;20.60;99.90;;;;;;5076906;28;20334;-68
2023/10/23 00:05:06;;;;;;;17.95;3.17;;;20.60;99.90;;;;;;5093649;28;20024;-69
2023/10/23 00:07:32;;;;;;;17.38;3.03;;;20.60;99.90;;;;;;5093705;28;20032;-69
2023/10/23 00:09:58;;;;;;;18.23;2.90;;;20.70;99.90;;;;;;5093607;28;20024;-69
2023/10/23 00:12:24;;;;;;;13.25;2.90;;;20.70;99.90;;;;;;5093554;28;20089;-68
2023/10/23 00:14:50;;;;;;;10.38;2.50;;;20.70;99.90;;;;;;5093517;28;20020;-69
2023/10/23 00:17:17;;;;;;;14.60;2.75;;;20.80;99.90;;;;;;5093614;28;20051;-68
2023/10/23 00:19:43;;;;;;;17.27;3.10;;;20.80;99.90;;;;;;5093660;28;20024;-69
2023/10/23 00:22:09;;;;;;;20.23;3.00;;;20.70;99.90;;;;;;5093601;28;20111;-69
2023/10/23 00:24:35;;;;;;;16.38;2.83;;;20.70;99.90;;;;;;5074731;28;20085;-69
2023/10/23 00:27:01;;;;;;;22.20;3.20;;;20.60;99.90;;;;;;5093263;28;20098;-70
2023/10/23 00:29:27;;;;;;;19.08;3.08;;;20.50;99.90;;;;;;5075004;28;20030;-69
2023/10/23 00:31:53;;;;;;;13.27;2.60;;;20.40;99.90;;;;;;5074774;28;20039;-69
2023/10/23 00:34:19;;;;;;;12.27;3.05;;;20.30;99.90;;;;;;5093015;28;20051;-69
2023/10/23 00:36:45;;;;;;;9.93;2.65;;;20.30;99.90;;;;;;5093099;28;20074;-69
2023/10/23 00:39:11;;;;;;;15.00;2.85;;;20.30;99.90;;;;;;5074805;28;20027;-69
2023/10/23 00:41:37;;;;;;;12.50;2.70;;;20.30;99.90;;;;;;5092664;28;20036;-69
2023/10/23 00:44:04;;;;;;;17.50;2.83;;;20.20;99.90;;;;;;5074659;28;20440;-70
2023/10/23 00:46:30;;;;;;;;;;;20.30;99.90;;;;;;5093183;28;20038;-69
2023/10/23 00:48:58;;;;;;;15.45;2.50;;;20.20;99.90;;;;;;5092937;28;19904;-69
2023/10/23 00:51:25;;;;;;;11.95;2.65;;;20.20;99.90;;;;;;5092933;28;20120;-69
2023/10/23 00:53:52;;;;;;;13.20;2.67;;;20.30;99.90;;;;;;5092927;28;20032;-70
2023/10/23 00:56:18;;;;;;;18.95;2.80;;;20.30;99.90;;;;;;5092553;28;20052;-68
2023/10/23 00:58:44;;;;;;;18.60;2.95;;;20.40;99.90;;;;;;5092888;28;20384;-68
2023/10/23 01:01:12;;;;;;;15.38;3.22;;;20.50;99.90;;;;;;5092996;28;20024;-69
2023/10/23 01:03:41;;;;;;;16.67;3.17;;;20.50;99.90;;;;;;5092459;28;20064;-69
2023/10/23 01:06:07;;;;;;;16.83;2.70;;;20.60;99.90;;;;;;5092802;28;20046;-69
2023/10/23 01:08:33;;;;;;;19.75;3.15;;;20.60;99.90;;;;;;5074186;28;20543;-69
2023/10/23 01:11:00;;;;;;;15.20;2.53;;;20.70;99.90;;;;;;5073864;28;20040;-69
2023/10/23 01:13:26;;;;;;;14.02;2.65;;;20.70;99.90;;;;;;5092603;28;20016;-69
2023/10/23 01:15:52;;;;;;;;;;;20.70;99.90;;;;;;5092530;28;20069;-69
2023/10/23 01:18:19;;;;;;;14.98;2.65;;;20.70;99.90;;;;;;5092324;28;20021;-69
2023/10/23 01:20:45;;;;;;;;;;;20.70;99.90;;;;;;5092646;28;20154;-68
2023/10/23 01:23:12;;;;;;;18.67;2.88;;;20.70;99.90;;;;;;5092046;28;19947;-69
2023/10/23 01:25:41;;;;;;;17.20;2.25;;;20.70;99.90;;;;;;5092189;28;20028;-69
2023/10/23 01:28:07;;;;;;;12.70;2.33;;;20.70;99.90;;;;;;5092417;28;20043;-68
2023/10/23 01:30:33;;;;;;;21.40;3.35;;;20.80;99.90;;;;;;5092214;28;20032;-69
2023/10/23 01:32:59;;;;;;;15.23;2.92;;;20.80;99.90;;;;;;5092145;28;20522;-70
2023/10/23 01:35:25;;;;;;;15.68;2.63;;;20.80;99.90;;;;;;5092306;28;20071;-69
2023/10/23 01:37:51;;;;;;;17.85;2.50;;;20.70;99.90;;;;;;5073503;28;20024;-69
2023/10/23 01:40:18;;;;;;;16.23;2.38;;;20.60;99.90;;;;;;5091807;28;20024;-69
2023/10/23 01:42:46;;;;;;;11.50;2.65;;;20.60;99.90;;;;;;5091661;28;20120;-68
2023/10/23 01:45:13;;;;;;;15.82;2.55;;;20.60;99.90;;;;;;5073424;28;20047;-70
2023/10/23 01:47:39;;;;;;;14.60;2.20;;;20.60;99.90;;;;;;5091843;28;20123;-69
2023/10/23 01:50:06;;;;;;;14.25;2.50;;;20.60;99.90;;;;;;5091608;28;20042;-69
2023/10/23 01:52:32;;;;;;;;;;;20.60;99.90;;;;;;5092095;28;20024;-66
2023/10/23 01:54:58;;;;;;;17.50;2.25;;;20.60;99.90;;;;;;5091596;28;19911;-69
2023/10/23 01:57:25;;;;;;;10.88;2.65;;;20.50;99.90;;;;;;5091370;28;20678;-67
2023/10/23 01:59:51;;;;;;;23.25;2.92;;;20.40;99.90;;;;;;5091595;28;20433;-67
2023/10/23 02:02:17;;;;;;;16.90;2.55;;;20.20;99.90;;;;;;5091229;28;20020;-67
2023/10/23 02:04:43;;;;;;;14.00;2.20;;;20.20;99.90;;;;;;5091305;28;20441;-69
2023/10/23 02:07:10;;;;;;;14.43;3.03;;;20.20;99.90;;;;;;5091310;28;20461;-69
2023/10/23 02:09:36;;;;;;;18.70;2.20;;;20.30;99.90;;;;;;5091045;28;20020;-68
2023/10/23 02:12:02;;;;;;;15.60;2.55;;;20.40;99.90;;;;;;5090979;28;20031;-68
2023/10/23 02:14:28;;;;;;;17.38;2.40;;;20.50;99.90;;;;;;5091517;28;20031;-68
2023/10/23 02:16:54;;;;;;;11.85;2.20;;;20.70;99.90;;;;;;5091453;28;20096;-67
2023/10/23 02:19:20;;;;;;;17.13;2.45;;;20.70;99.90;;;;;;5091299;28;20353;-68
2023/10/23 02:21:49;;;;;;;13.00;1.85;;;20.70;99.90;;;;;;5091081;28;20126;-68
2023/10/23 02:24:16;;;;;;;12.65;2.20;;;20.60;99.90;;;;;;5072739;28;20363;-68
2023/10/23 02:26:42;;;;;;;15.93;2.47;;;20.60;99.90;;;;;;5090177;28;20365;-69
2023/10/23 02:29:09;;;;;;;10.98;1.88;;;20.60;99.90;;;;;;5090994;28;20537;-70
2023/10/23 02:31:36;;;;;;;18.45;2.55;;;20.60;99.90;;;;;;5072662;28;20472;-68
2023/10/23 02:34:03;;;;;;;14.27;1.65;;;20.60;99.90;;;;;;5091015;28;20108;-68
2023/10/23 02:36:29;;;;;;;10.73;2.45;;;20.50;99.90;;;;;;5090942;28;20028;-68
2023/10/23 02:38:55;;;;;;;12.10;2.35;;;20.70;99.90;;;;;;5091178;28;20111;-69
2023/10/23 02:41:21;;;;;;;13.65;2.55;;;20.70;99.90;;;;;;5090433;28;20090;-68
2023/10/23 02:43:49;;;;;;;13.13;2.05;;;20.70;99.90;;;;;;5072953;28;20483;-67
2023/10/23 02:46:16;;;;;;;12.48;2.45;;;20.70;99.90;;;;;;5090508;28;20502;-68
2023/10/23 02:48:42;;;;;;;14.00;2.17;;;20.70;99.90;;;;;;5090509;28;20035;-68
2023/10/23 02:51:08;;;;;;;10.38;2.13;;;20.70;99.90;;;;;;5090440;28;20506;-68
2023/10/23 02:53:35;;;;;;;13.88;1.80;;;20.80;99.90;;;;;;5090548;28;20024;-68
2023/10/23 02:56:02;;;;;;;13.77;2.42;;;20.80;99.90;;;;;;5090494;28;20106;-67
2023/10/23 02:58:28;;;;;;;11.70;2.38;;;20.80;99.90;;;;;;5072897;28;20024;-68
2023/10/23 03:00:54;;;;;;;10.35;1.90;;;20.60;99.90;;;;;;5090872;28;20484;-67
2023/10/23 03:03:20;;;;;;;13.50;2.22;;;20.60;99.90;;;;;;5090872;28;20024;-68
2023/10/23 03:05:47;;;;;;;11.63;2.67;;;20.40;99.90;;;;;;5072229;28;20035;-67
2023/10/23 03:08:14;;;;;;;;;;;20.50;99.90;;;;;;5091338;28;20040;-68
2023/10/23 03:10:40;;;;;;;9.80;2.20;;;20.40;99.90;;;;;;5090868;28;19958;-68
2023/10/23 03:13:07;;;;;;;11.15;2.00;;;20.40;99.90;;;;;;5090914;28;20325;-68
2023/10/23 03:15:33;;;;;;;10.98;2.08;;;20.20;99.90;;;;;;5090702;28;20068;-68
2023/10/23 03:18:03;;;;;;;10.80;2.10;;;20.00;99.90;;;;;;5090979;28;20059;-69
2023/10/23 03:20:30;;;;;;;14.45;2.50;;;19.90;99.90;;;;;;5091141;28;20017;-68
2023/10/23 03:22:56;;;;;;;12.32;2.33;;;19.80;99.90;;;;;;5091055;28;20028;-69
2023/10/23 03:25:23;;;;;;;12.05;2.33;;;19.70;99.90;;;;;;5091559;28;20109;-68
2023/10/23 03:27:49;;;;;;;18.63;2.38;;;19.80;99.90;;;;;;5091653;28;20020;-68
2023/10/23 03:30:16;;;;;;;15.43;2.35;;;19.80;99.90;;;;;;5091863;28;20038;-68
2023/10/23 03:32:42;;;;;;;11.95;2.80;;;19.80;99.90;;;;;;5092131;28;20095;-67
2023/10/23 03:35:08;;;;;;;14.55;2.50;;;19.70;99.90;;;;;;5092045;28;20024;-68
2023/10/23 03:37:34;;;;;;;12.88;2.00;;;19.80;99.90;;;;;;5093159;28;20020;-69
2023/10/23 03:40:00;;;;;;;9.40;2.13;;;19.90;99.90;;;;;;5095737;28;20107;-68
2023/10/23 03:42:26;;;;;;;14.05;2.47;;;20.00;99.90;;;;;;5095356;28;20047;-69
2023/10/23 03:44:52;;;;;;;12.77;2.22;;;20.10;99.90;;;;;;5111010;28;20032;-68
2023/10/23 03:47:18;;;;;;;11.18;2.00;;;20.10;99.90;;;;;;5095411;28;20497;-68
2023/10/23 03:49:46;;;;;;;9.48;2.00;;;20.00;99.90;;;;;;5095266;28;20553;-67
2023/10/23 03:52:12;;;;;;;11.70;2.00;;;20.00;99.90;;;;;;5095240;28;20468;-68
2023/10/23 03:54:38;;;;;;;13.75;2.17;;;20.00;99.90;;;;;;5095255;28;20035;-68
2023/10/23 03:57:04;;;;;;;16.75;2.20;;;20.10;99.90;;;;;;5095074;28;20032;-68
2023/10/23 03:59:30;;;;;;;13.75;2.20;;;20.20;99.90;;;;;;5094785;28;20028;-68
2023/10/23 04:01:56;;;;;;;9.57;2.05;;;20.20;99.90;;;;;;5095389;28;20024;-68
2023/10/23 04:04:22;;;;;;;15.20;2.15;;;20.30;99.90;;;;;;5095412;28;20028;-68
2023/10/23 04:06:48;;;;;;;8.18;1.58;;;20.30;99.90;;;;;;5095177;28;20419;-68
2023/10/23 04:09:14;;;;;;;13.68;2.30;;;20.40;99.90;;;;;;5094929;28;20103;-68
2023/10/23 04:11:40;;;;;;;11.10;1.88;;;20.40;99.90;;;;;;5094760;28;20062;-68
2023/10/23 04:14:08;;;;;;;13.48;3.00;;;20.30;99.90;;;;;;5076605;28;20078;-68
2023/10/23 04:16:34;;;;;;;11.15;2.22;;;20.30;99.90;;;;;;5076685;28;20028;-67
2023/10/23 04:19:00;;;;;;;11.00;1.90;;;20.20;99.90;;;;;;5095923;28;20039;-67
2023/10/23 04:21:26;;;;;;;9.65;1.92;;;20.20;99.90;;;;;;5095355;28;20032;-67
2023/10/23 04:23:53;;;;;;;11.85;1.70;;;20.20;99.90;;;;;;5095419;28;20047;-67
2023/10/23 04:26:19;;;;;;;12.40;1.83;;;20.20;99.90;;;;;;5095166;28;20036;-68
2023/10/23 04:28:45;;;;;;;10.52;2.40;;;20.20;99.90;;;;;;5095745;28;20024;-67
2023/10/23 04:31:11;;;;;;;11.65;2.35;;;20.20;99.90;;;;;;5095133;28;20474;-68
2023/10/23 04:33:37;;;;;;;15.75;2.10;;;20.10;99.90;;;;;;5095119;28;20099;-67
2023/10/23 04:36:03;;;;;;;11.25;1.73;;;20.10;99.90;;;;;;5095259;28;20020;-68
2023/10/23 04:38:31;;;;;;;11.75;2.13;;;20.20;99.90;;;;;;5095514;28;20030;-67
2023/10/23 04:40:57;;;;;;;9.63;2.10;;;20.30;99.90;;;;;;5094782;28;20139;-67
2023/10/23 04:43:23;;;;;;;14.95;2.30;;;20.30;99.90;;;;;;5095460;28;20416;-69
2023/10/23 04:45:49;;;;;;;11.82;1.75;;;20.30;99.90;;;;;;5095473;28;20046;-68
2023/10/23 04:48:15;;;;;;;11.77;2.13;;;20.40;99.90;;;;;;5095599;28;20021;-68
2023/10/23 04:50:42;;;;;;;16.08;2.10;;;20.30;99.90;;;;;;5094747;28;20483;-68
2023/10/23 04:53:08;;;;;;;8.82;1.70;;;20.40;99.90;;;;;;5095412;28;20476;-68
2023/10/23 04:55:34;;;;;;;15.32;2.55;;;20.50;99.90;;;;;;5095167;28;20101;-69
2023/10/23 04:58:02;;;;;;;9.48;1.70;;;20.50;99.90;;;;;;5094721;28;20047;-69
2023/10/23 05:00:28;;;;;;;12.55;2.17;;;20.50;99.90;;;;;;5095083;28;20107;-68
2023/10/23 05:02:55;;;;;;;15.38;2.30;;;20.50;99.90;;;;;;5076405;28;20031;-68
2023/10/23 05:05:22;;;;;;;17.55;1.98;;;20.50;99.90;;;;;;5076189;28;20039;-68
2023/10/23 05:07:48;;;;;;;9.45;1.92;;;20.50;99.90;;;;;;5095013;28;20036;-68
2023/10/23 05:10:14;;;;;;;8.70;2.53;;;20.50;99.90;;;;;;5094287;28;20043;-68
2023/10/23 05:12:40;;;;;;;14.30;1.88;;;20.50;99.90;;;;;;5094397;28;20024;-68
2023/10/23 05:15:08;;;;;;;12.38;2.35;;;20.50;99.90;;;;;;5094254;28;20461;-70
2023/10/23 05:17:34;;;;;;;9.20;1.70;;;20.50;99.90;;;;;;5094098;28;20035;-68
2023/10/23 05:20:01;;;;;;;17.85;1.92;;;20.50;99.90;;;;;;5094222;28;20016;-69
2023/10/23 05:22:27;;;;;;;17.65;2.50;;;20.50;99.90;;;;;;5094319;28;20067;-68
2023/10/23 05:24:53;;;;;;;15.40;2.08;;;20.40;99.90;;;;;;5094422;28;20024;-69
2023/10/23 05:27:19;;;;;;;10.50;2.03;;;20.40;99.90;;;;;;5093872;28;20038;-69
2023/10/23 05:29:45;;;;;;;6.15;1.42;;;20.40;99.90;;;;;;5094333;28;20048;-68
2023/10/23 05:32:12;;;;;;;9.50;1.80;;;20.40;99.90;;;;;;5093607;28;20388;-68
2023/10/23 05:34:38;;;;;;;12.82;2.15;;;20.40;99.90;;;;;;5093260;28;20085;-68
2023/10/23 05:37:04;;;;;;;11.57;2.10;;;20.40;99.90;;;;;;5093139;28;20432;-69
2023/10/23 05:39:30;;;;;;;12.18;2.10;;;20.40;99.90;;;;;;5093407;28;20031;-69
2023/10/23 05:41:56;;;;;;;6.63;1.50;;;20.40;99.90;;;;;;5093075;28;20052;-68
2023/10/23 05:44:22;;;;;;;13.38;1.75;;;20.50;99.90;;;;;;5092913;28;20047;-68
2023/10/23 05:46:48;;;;;;;13.85;2.20;;;20.50;99.90;;;;;;5092904;28;20101;-69
2023/10/23 05:49:14;;;;;;;8.98;1.65;;;20.50;99.90;;;;;;5092550;28;20153;-68
2023/10/23 05:51:40;;;;;;;20.88;2.30;;;20.60;99.90;;;;;;5073917;28;20074;-68
2023/10/23 05:54:08;;;;;;;14.60;2.42;;;20.60;99.90;;;;;;5093022;28;20016;-70
2023/10/23 05:56:34;;;;;;;14.60;2.28;;;20.70;99.90;;;;;;5092079;28;20413;-67
2023/10/23 05:59:00;;;;;;;17.58;2.38;;;20.90;99.90;;;;;;5092071;28;20483;-69
2023/10/23 06:01:26;;;;;;;11.68;2.10;;;20.90;99.90;;;;;;5091341;28;20458;-68
2023/10/23 06:03:53;;;;;;;10.20;2.15;;;21.10;99.90;;;;;;5092448;28;20024;-69
2023/10/23 06:06:19;;;;;;;9.32;1.80;;;21.10;99.90;;;;;;5092791;28;20399;-70
2023/10/23 06:08:45;;;;;;;6.82;1.60;;;21.30;99.90;;;;;;5092483;28;20494;-67
2023/10/23 06:11:12;;;;;;;13.23;1.88;;;21.30;99.90;;;;;;5091543;28;20024;-70
2023/10/23 06:13:39;;;;;;;13.35;2.58;;;21.40;99.90;;;;;;5092190;28;20021;-68
2023/10/23 06:16:05;;;;;;;15.38;1.92;;;21.50;99.90;;;;;;5091919;28;20032;-69
2023/10/23 06:18:35;;;;;;;11.75;1.90;;;21.80;99.90;;;;;;5091946;28;20026;-68
2023/10/23 06:21:04;;;;;;;8.98;2.13;;;21.90;99.90;;;;;;5092439;28;20523;-68
2023/10/23 06:23:41;;;;;;;10.93;2.03;;;22.00;99.90;;;;;;5093081;28;20403;-69
2023/10/23 06:26:07;;;;;;;;;;;22.30;99.90;;;;;;5074820;28;20123;-69
2023/10/23 06:28:34;;;;;;;12.65;1.75;;;22.30;99.90;;;;;;5092750;28;19903;-68
2023/10/23 06:31:10;;;;;;;8.60;2.20;;;22.60;99.90;;;;;;5092356;28;20440;-68
2023/10/23 06:33:38;;;;;;;15.95;2.42;;;22.80;99.90;;;;;;5092151;28;20024;-67
2023/10/23 06:36:09;;;;;;;10.98;1.98;;;22.90;99.90;;;;;;5091846;28;20028;-67
2023/10/23 06:38:35;;;;;;;13.38;2.13;;;23.20;99.90;;;;;;5092271;28;20334;-68
2023/10/23 06:41:04;;;;;;;11.25;1.73;;;23.30;99.90;;;;;;5091494;28;20130;-68
2023/10/23 06:43:31;;;;;;;7.43;1.83;;;23.40;99.90;;;;;;5092456;28;20026;-68
2023/10/23 06:45:57;;;;;;;8.95;1.80;;;24.00;99.90;;;;;;5091735;28;20032;-68
2023/10/23 06:48:23;;;;;;;16.92;2.30;;;24.20;99.90;;;;;;5091724;28;20023;-68
2023/10/23 06:50:49;;;;;;;10.38;2.42;;;24.40;99.90;;;;;;5091873;28;20056;-68
2023/10/23 06:53:16;;;;;;;13.98;2.05;;;24.20;99.90;;;;;;5092087;28;20032;-67
2023/10/23 06:55:48;;;;;;;16.63;1.98;;;24.30;99.90;;;;;;5091356;28;20023;-69
2023/10/23 06:58:15;;;;;;;10.02;2.15;;;24.00;99.90;;;;;;5091644;28;20032;-68
2023/10/23 07:00:41;;;;;;;16.92;2.10;;;24.10;99.90;;;;;;5091585;28;20043;-68
2023/10/23 07:03:07;;;;;;;14.50;2.88;;;24.00;99.90;;;;;;5091618;28;20028;-68
2023/10/23 07:05:33;;;;;;;11.95;2.13;;;24.50;99.90;;;;;;5091569;28;20036;-68
2023/10/23 07:07:59;;;;;;;10.75;2.00;;;24.90;99.90;;;;;;5073201;28;20024;-69
2023/10/23 07:10:25;;;;;;;16.83;2.33;;;24.70;99.90;;;;;;5091377;28;20020;-71
2023/10/23 07:12:53;;;;;;;13.93;2.40;;;24.60;99.90;;;;;;5094045;28;20024;-68
2023/10/23 07:15:20;;;;;;;17.35;2.50;;;24.70;99.90;;;;;;5095754;28;20542;-68
2023/10/23 07:17:46;;;;;;;14.23;1.83;;;24.60;99.90;;;;;;5077740;28;20056;-69
2023/10/23 07:20:16;;;;;;;9.43;2.17;;;25.00;99.90;;;;;;5095623;28;20063;-69
2023/10/23 07:22:43;;;;;;;14.27;2.45;;;25.10;99.90;;;;;;5077635;28;20020;-69
2023/10/23 07:25:13;;;;;;;15.50;2.53;;;24.70;99.90;;;;;;5095411;28;20038;-70
2023/10/23 07:27:39;;;;;;;13.00;2.75;;;24.60;99.90;;;;;;5076943;28;20099;-69
2023/10/23 07:30:06;;;;;;;14.05;2.08;;;24.40;99.90;;;;;;5095837;28;20059;-69
2023/10/23 07:32:34;;;;;;;12.32;2.20;;;23.90;99.90;;;;;;5095884;28;20071;-68
2023/10/23 07:35:04;;;;;;;10.85;2.17;;;24.00;99.90;;;;;;5095725;28;20429;-69
2023/10/23 07:37:31;;;;;;;11.30;2.10;;;24.00;99.90;;;;;;5095277;28;20020;-69
2023/10/23 07:39:58;;;;;;;11.52;2.00;;;24.00;99.90;;;;;;5095359;28;20035;-68
2023/10/23 07:42:26;;;;;;;9.85;1.80;;;24.00;99.90;;;;;;5094641;28;20042;-68
2023/10/23 07:44:52;;;;;;;6.00;1.48;;;24.00;99.90;;;;;;5095848;28;20028;-71
2023/10/23 07:47:18;;;;;;;9.55;1.60;;;24.30;99.90;;;;;;5076888;28;20472;-68
2023/10/23 07:49:45;;;;;;;10.90;1.75;;;24.60;99.90;;;;;;5094433;28;20022;-68
2023/10/23 07:52:11;;;;;;;10.52;1.63;;;24.70;99.90;;;;;;5076112;28;20491;-69
2023/10/23 07:54:37;;;;;;;8.18;1.63;;;25.10;99.90;;;;;;5094078;28;20025;-68
2023/10/23 07:57:03;;;;;;;7.47;1.38;;;25.50;99.90;;;;;;5093730;28;20025;-68
2023/10/23 07:59:29;;;;;;;10.52;1.60;;;25.00;99.90;;;;;;5094219;28;20020;-69
2023/10/23 08:01:56;;;;;;;12.02;1.70;;;25.20;99.90;;;;;;5094153;28;20047;-69
2023/10/23 08:04:22;;;;;;;7.40;1.58;;;25.00;99.90;;;;;;5094399;28;20093;-69
2023/10/23 08:06:48;;;;;;;10.27;1.40;;;25.10;99.90;;;;;;5094393;28;20040;-68
2023/10/23 08:09:14;;;;;;;9.50;1.70;;;24.90;99.90;;;;;;5075793;28;20035;-70
2023/10/23 08:11:41;;;;;;;11.45;1.77;;;24.80;99.90;;;;;;5093825;28;20031;-68
2023/10/23 08:14:07;;;;;;;11.15;1.60;;;24.60;99.90;;;;;;5075347;28;20016;-68
2023/10/23 08:16:33;;;;;;;9.77;1.60;;;25.10;99.90;;;;;;5093575;28;20046;-69
2023/10/23 08:18:59;;;;;;;7.45;1.45;;;25.10;99.90;;;;;;5094440;28;20399;-68
2023/10/23 08:21:28;;;;;;;10.60;1.38;;;25.50;99.90;;;;;;5094230;28;20472;-68
2023/10/23 08:23:55;;;;;;;10.52;1.88;;;25.00;99.90;;;;;;5093168;28;20066;-68
2023/10/23 08:26:22;;;;;;;11.60;1.80;;;25.50;99.90;;;;;;5094105;28;20032;-68
2023/10/23 08:28:48;;;;;;;6.13;1.48;;;25.70;99.90;;;;;;5093996;28;20038;-69
2023/10/23 08:31:15;;;;;;;8.68;1.60;;;25.30;99.90;;;;;;5094501;28;20032;-69
2023/10/23 08:33:41;;;;;;;11.10;1.35;;;25.50;99.90;;;;;;5075514;28;20020;-69
2023/10/23 08:36:08;;;;;;;7.25;1.98;;;25.70;99.90;;;;;;5093912;28;20162;-68
2023/10/23 08:38:34;;;;;;;8.40;1.67;;;25.40;99.90;;;;;;5093955;28;20021;-69
2023/10/23 08:41:03;;;;;;;9.45;1.90;;;25.60;99.90;;;;;;5093691;28;20083;-67
2023/10/23 08:43:30;;;;;;;13.20;2.00;;;25.60;99.90;;;;;;5094062;28;20391;-68
2023/10/23 08:46:00;;;;;;;6.85;1.30;;;25.60;99.90;;;;;;5093870;28;20086;-69
2023/10/23 08:48:27;;;;;;;9.35;1.75;;;25.70;99.90;;;;;;5075561;28;20468;-68
2023/10/23 08:50:54;;;;;;;;;;;25.80;99.90;;;;;;5093995;28;20020;-69
2023/10/23 08:53:23;;;;;;;7.07;1.80;;;26.10;99.90;;;;;;5093839;28;20360;-67
2023/10/23 08:55:51;;;;;;;11.57;1.92;;;26.50;99.90;;;;;;5075658;28;20028;-70
2023/10/23 08:58:19;;;;;;;8.13;1.35;;;26.30;99.90;;;;;;5093615;28;20460;-69
2023/10/23 09:00:46;;;;;;;8.27;1.70;;;25.70;99.90;;;;;;5094054;28;20032;-69
2023/10/23 09:03:13;;;;;;;12.48;1.70;;;25.60;99.90;;;;;;5093656;28;20517;-69
2023/10/23 09:05:39;;;;;;;6.20;1.40;;;25.60;99.90;;;;;;5093468;28;20433;-69
2023/10/23 09:08:05;;;;;;;9.75;1.90;;;25.70;99.90;;;;;;5093136;28;20036;-68
2023/10/23 09:10:31;;;;;;;9.60;1.73;;;26.00;99.90;;;;;;5093005;28;20108;-69
2023/10/23 09:12:57;;;;;;;10.38;1.80;;;26.20;99.90;;;;;;5074580;28;20074;-68
2023/10/23 09:15:26;;;;;;;7.82;1.52;;;26.50;99.90;;;;;;5093436;28;20108;-69
2023/10/23 09:17:53;;;;;;;6.65;1.52;;;26.50;99.90;;;;;;5093124;28;20031;-69
2023/10/23 09:20:23;;;;;;;11.23;1.75;;;26.60;99.90;;;;;;5093167;28;20016;-70
2023/10/23 09:22:49;;;;;;;15.57;1.90;;;26.80;99.90;;;;;;5093265;28;20119;-68
2023/10/23 09:25:16;;;;;;;;;;;27.20;99.90;;;;;;5093202;28;20020;-69
2023/10/23 09:27:43;;;;;;;7.10;1.70;;;27.20;99.90;;;;;;5092781;28;20245;-69
2023/10/23 09:30:10;;;;;;;11.80;1.48;;;27.10;99.90;;;;;;5074811;28;20032;-69
2023/10/23 09:32:37;;;;;;;15.15;2.78;;;27.10;99.90;;;;;;5092934;28;20153;-70
2023/10/23 09:35:04;;;;;;;12.23;2.03;;;27.20;99.90;;;;;;5092182;28;20081;-68
2023/10/23 09:37:30;;;;;;;16.13;1.65;;;27.40;99.90;;;;;;5092439;28;20027;-69
2023/10/23 09:40:10;;;;;;;9.93;1.80;;;27.60;99.90;;;;;;5074311;28;20024;-68
2023/10/23 09:42:36;;;;;;;10.40;1.90;;;27.20;99.90;;;;;;5092048;28;20051;-68
2023/10/23 09:45:04;;;;;;;7.90;1.40;;;27.00;99.90;;;;;;5092176;28;20036;-68
2023/10/23 09:47:31;;;;;;;14.32;1.92;;;26.80;99.90;;;;;;5091898;28;20110;-69
2023/10/23 09:49:58;;;;;;;7.30;1.48;;;26.80;99.90;;;;;;5092064;28;20032;-68
2023/10/23 09:52:26;;;;;;;15.10;2.03;;;27.00;99.90;;;;;;5092352;28;20043;-68
2023/10/23 09:55:13;;;;;;;11.93;1.88;;;26.90;99.90;;;;;;5091888;28;20426;-69
2023/10/23 09:57:44;;;;;;;7.88;1.63;;;26.90;99.90;;;;;;5091941;28;20028;-69
2023/10/23 10:00:15;;;;;;;11.50;1.90;;;27.00;99.90;;;;;;5092215;28;20032;-69
2023/10/23 10:02:55;;;;;;;8.45;1.83;;;27.20;99.90;;;;;;5091684;28;20056;-68
2023/10/23 10:05:40;;;;;;;9.35;1.70;;;27.60;99.90;;;;;;5091999;28;20040;-70
2023/10/23 10:08:15;;;;;;;11.67;1.70;;;27.60;99.90;;;;;;5092647;28;20402;-69
2023/10/23 10:10:43;;;;;;;12.82;1.75;;;27.30;99.90;;;;;;5091815;28;20047;-68
2023/10/23 10:13:11;;;;;;;27.85;4.18;;;27.50;99.90;;;;;;5091932;28;20071;-68
2023/10/23 10:15:39;;;;;;;13.35;1.92;;;27.60;99.90;;;;;;5092059;28;20024;-68
2023/10/23 10:18:05;;;;;;;13.98;1.98;;;27.50;99.90;;;;;;5092075;28;20016;-68
2023/10/23 10:20:31;;;;;;;14.15;2.05;;;27.60;99.90;;;;;;5091914;28;20031;-70
2023/10/23 10:23:18;;;;;;;10.82;2.03;;;27.60;99.90;;;;;;5092573;28;20023;-68
2023/10/23 10:25:46;;;;;;;15.73;1.77;;;27.70;99.90;;;;;;5091704;28;20040;-69
2023/10/23 10:28:13;;;;;;;14.75;2.20;;;27.40;99.90;;;;;;5091840;28;20028;-69
2023/10/23 10:30:50;;;;;;;16.38;2.30;;;27.60;99.90;;;;;;5092163;28;20035;-69
2023/10/23 10:33:31;;;;;;;17.80;2.40;;;27.60;99.90;;;;;;5091917;28;20181;-69
2023/10/23 10:36:03;;;;;;;17.33;2.42;;;27.80;99.90;;;;;;5092363;28;20086;-68
2023/10/23 10:38:30;;;;;;;12.35;2.00;;;27.90;99.90;;;;;;5092238;28;20013;-68
2023/10/23 10:41:03;;;;;;;12.70;2.28;;;27.80;99.90;;;;;;5091520;28;20050;-69
2023/10/23 10:43:34;;;;;;;13.23;2.25;;;27.70;99.90;;;;;;5091769;28;20016;-69
2023/10/23 10:46:18;;;;;;;20.65;2.53;;;27.50;99.90;;;;;;5091647;28;20040;-70
2023/10/23 10:48:46;;;;;;;14.45;2.15;;;27.70;99.90;;;;;;5091687;28;20020;-69
2023/10/23 10:51:17;;;;;;;16.08;2.42;;;27.90;99.90;;;;;;5091516;28;20052;-70
2023/10/23 10:53:45;;;;;;;9.82;2.10;;;27.90;99.90;;;;;;5091696;28;20476;-68
2023/10/23 10:56:12;;;;;;;14.30;2.42;;;28.10;99.90;;;;;;5091892;28;20032;-69
2023/10/23 10:58:42;;;;;;;16.90;2.42;;;27.80;99.90;;;;;;5091659;28;20031;-69
2023/10/23 11:01:08;;;;;;;14.60;2.70;;;27.70;99.90;;;;;;5091741;28;20524;-68
2023/10/23 11:03:34;;;;;;;;;;;27.40;99.90;;;;;;5092309;28;20032;-69
2023/10/23 11:06:00;;;;;;;19.48;2.38;;;27.50;99.90;;;;;;5091600;28;19920;-69
2023/10/23 11:08:30;;;;;;;10.90;2.67;;;27.50;99.90;;;;;;5073498;28;20330;-68
2023/10/23 11:10:57;;;;;;;9.13;2.00;;;27.70;99.90;;;;;;5091853;28;20054;-70
2023/10/23 11:13:24;;;;;;;16.38;2.67;;;27.90;99.90;;;;;;5073296;28;20051;-70
2023/10/23 11:15:56;;;;;;;12.65;2.35;;;27.70;99.90;;;;;;5091131;28;20028;-68
2023/10/23 11:18:22;;;;;;;17.40;2.58;;;27.40;99.90;;;;;;5091518;28;20020;-69
2023/10/23 11:20:49;;;;;;;18.63;2.60;;;27.20;99.90;;;;;;5091627;28;20069;-69
2023/10/23 11:23:18;;;;;;;;;;;27.40;99.90;;;;;;5092387;28;20020;-68
2023/10/23 11:25:48;;;;;;;12.35;2.40;;;27.20;99.90;;;;;;5091667;28;19916;-68
2023/10/23 11:28:17;;;;;;;17.70;2.40;;;27.50;99.90;;;;;;5091567;28;20024;-69
2023/10/23 11:30:49;;;;;;;16.77;2.85;;;27.70;99.90;;;;;;5091550;28;20472;-69
2023/10/23 11:33:18;;;;;;;17.50;2.33;;;27.70;99.90;;;;;;5091347;28;20028;-69
2023/10/23 11:35:44;;;;;;;15.27;2.33;;;27.80;99.90;;;;;;5091219;28;20089;-70
2023/10/23 11:38:14;;;;;;;17.30;2.85;;;28.00;99.90;;;;;;5091609;28;20031;-69
2023/10/23 11:40:44;;;;;;;15.25;1.85;;;27.60;99.90;;;;;;5091384;28;20084;-68
2023/10/23 11:43:16;;;;;;;15.55;2.50;;;27.80;99.90;;;;;;5091199;28;20031;-69
2023/10/23 11:45:43;;;;;;;18.85;2.88;;;27.60;99.90;;;;;;5091670;28;20036;-68
2023/10/23 11:48:12;;;;;;;16.85;2.58;;;27.80;99.90;;;;;;5091274;28;20024;-69
2023/10/23 11:50:40;;;;;;;15.88;2.50;;;27.50;99.90;;;;;;5092002;28;20024;-68
2023/10/23 11:53:06;;;;;;;14.88;2.50;;;27.50;99.90;;;;;;5091698;28;20028;-69
2023/10/23 11:55:33;;;;;;;18.88;2.60;;;27.60;99.90;;;;;;5073271;28;20491;-70
2023/10/23 11:58:01;;;;;;;21.13;2.40;;;27.60;99.90;;;;;;5092148;28;20391;-69
2023/10/23 12:00:30;;;;;;;22.50;2.80;;;27.60;99.90;;;;;;5095523;28;20028;-70
2023/10/23 12:02:56;;;;;;;15.32;2.45;;;27.50;99.90;;;;;;5095354;28;20020;-70
2023/10/23 12:05:23;;;;;;;19.15;2.70;;;27.60;99.90;;;;;;5095775;28;20062;-69
2023/10/23 12:07:50;;;;;;;;;;;27.50;99.90;;;;;;5096662;28;20069;-68
2023/10/23 12:10:17;;;;;;;17.08;2.67;;;27.80;99.90;;;;;;5095465;28;19916;-70
2023/10/23 12:12:44;;;;;;;15.27;2.40;;;27.90;99.90;;;;;;5095401;28;20035;-67
2023/10/23 12:15:12;;;;;;;19.23;2.50;;;27.90;99.90;;;;;;5077222;28;20506;-69
2023/10/23 12:17:39;;;;;;;17.65;2.95;;;27.60;99.90;;;;;;5095173;28;20028;-69
2023/10/23 12:20:07;;;;;;;13.85;2.05;;;27.80;99.90;;;;;;5095407;28;20024;-69
2023/10/23 12:22:36;;;;;;;19.77;2.63;;;28.00;99.90;;;;;;5095404;28;20111;-68
2023/10/23 12:25:04;;;;;;;17.52;2.35;;;27.90;99.90;;;;;;5095309;28;20016;-69
2023/10/23 12:27:33;;;;;;;24.17;2.90;;;27.60;99.90;;;;;;5077110;28;20429;-68
2023/10/23 12:30:04;;;;;;;17.92;2.80;;;27.80;99.90;;;;;;5095471;28;20406;-69
2023/10/23 12:32:31;;;;;;;17.90;2.35;;;27.90;99.90;;;;;;5095962;28;20028;-68
2023/10/23 12:34:57;;;;;;;22.10;2.50;;;28.00;99.90;;;;;;5095541;28;20126;-69
2023/10/23 12:37:25;;;;;;;;;;;27.90;99.90;;;;;;5096192;28;20021;-67
2023/10/23 12:39:51;;;;;;;22.75;2.97;;;27.70;99.90;;;;;;5095119;28;19911;-68
2023/10/23 12:42:17;;;;;;;24.05;3.03;;;27.60;99.90;;;;;;5094833;28;20496;-68